createdAt,value
2023-04-02T00:01:02.543Z,99107.36
2023-04-02T00:03:45.880Z,99112.09
2023-04-02T00:06:30.518Z,99114.41
2023-04-02T00:09:02.688Z,99113.20
2023-04-02T00:11:37.423Z,99111.98
2023-04-02T00:14:06.465Z,99112.86
2023-04-02T00:16:34.399Z,99116.82
2023-04-02T00:19:06.512Z,99116.27
2023-04-02T00:21:37.288Z,99118.55
2023-04-02T00:24:18.128Z,99121.20
2023-04-02T00:26:46.884Z,99123.22
2023-04-02T00:29:15.948Z,99122.79
2023-04-02T00:31:46.887Z,99124.85
2023-04-02T00:34:33.258Z,99123.83
2023-04-02T00:37:02.012Z,99124.35
2023-04-02T00:39:33.076Z,99128.54
2023-04-02T00:42:06.935Z,99125.62
2023-04-02T00:44:37.854Z,99126.54
2023-04-02T00:47:15.252Z,99127.52
2023-04-02T00:49:43.907Z,99131.45
2023-04-02T00:52:13.249Z,99138.45
2023-04-02T00:54:43.971Z,99139.52
2023-04-02T00:57:16.576Z,99140.89
2023-04-02T01:00:08.609Z,99140.96
2023-04-02T01:02:41.062Z,99141.20
2023-04-02T01:05:15.168Z,99145.63
2023-04-02T01:07:43.057Z,99147.30
2023-04-02T01:10:32.086Z,99150.92
2023-04-02T01:12:59.947Z,99153.13
2023-04-02T01:15:31.022Z,99154.41
2023-04-02T01:18:01.826Z,99155.52
2023-04-02T01:20:49.102Z,99162.99
2023-04-02T01:23:30.888Z,99161.55
2023-04-02T01:26:10.736Z,99163.98
2023-04-02T01:28:46.654Z,99166.48
2023-04-02T01:31:15.523Z,99169.19
2023-04-02T01:33:43.915Z,99169.23
2023-04-02T01:36:17.121Z,99170.88
2023-04-02T01:38:58.301Z,99172.62
2023-04-02T01:41:39.622Z,99175.30
2023-04-02T01:44:09.737Z,99175.20
2023-04-02T01:46:40.429Z,99176.10
2023-04-02T01:49:18.332Z,99174.54
2023-04-02T01:51:51.322Z,99178.41
2023-04-02T01:54:20.234Z,99178.27
2023-04-02T01:56:48.823Z,99177.44
2023-04-02T01:59:22.578Z,99179.67
2023-04-02T02:02:02.704Z,99178.08
2023-04-02T02:04:31.454Z,99180.21
2023-04-02T02:07:02.336Z,99184.49
2023-04-02T02:09:32.629Z,99186.54
2023-04-02T02:12:02.864Z,99186.61
2023-04-02T02:14:31.815Z,99190.16
2023-04-02T02:17:02.480Z,99191.98
2023-04-02T02:19:38.648Z,99194.17
2023-04-02T02:22:13.920Z,99198.25
2023-04-02T02:24:42.401Z,99197.66
2023-04-02T02:27:22.745Z,99196.06
2023-04-02T02:29:54.835Z,99193.33
2023-04-02T02:32:25.548Z,99198.11
2023-04-02T02:35:26.539Z,99200.16
2023-04-02T02:37:57.674Z,99199.70
2023-04-02T02:40:32.027Z,99195.34
2023-04-02T02:43:02.888Z,99196.54
2023-04-02T02:45:34.906Z,99194.16
2023-04-02T02:48:05.385Z,99186.71
2023-04-02T02:50:33.937Z,99183.03
2023-04-02T02:53:04.785Z,99178.30
2023-04-02T02:55:37.018Z,99177.59
2023-04-02T02:58:20.283Z,99177.05
2023-04-02T03:00:56.729Z,99171.84
2023-04-02T03:03:27.507Z,99170.45
2023-04-02T03:06:02.215Z,99170.86
2023-04-02T03:08:34.096Z,99169.44
2023-04-02T03:11:08.941Z,99172.67
2023-04-02T03:13:39.008Z,99171.36
2023-04-02T03:16:11.785Z,99170.62
2023-04-02T03:18:46.684Z,99168.33
2023-04-02T03:21:21.056Z,99165.58
2023-04-02T03:23:53.784Z,99168.86
2023-04-02T03:26:25.615Z,99171.52
2023-04-02T03:29:01.235Z,99170.38
2023-04-02T03:31:35.485Z,99172.44
2023-04-02T03:34:25.741Z,99173.02
2023-04-02T03:36:58.016Z,99173.44
2023-04-02T03:39:31.410Z,99170.71
2023-04-02T03:42:09.354Z,99169.94
2023-04-02T03:44:38.253Z,99169.98
2023-04-02T03:47:31.071Z,99175.31
2023-04-02T03:49:58.926Z,99185.70
2023-04-02T03:52:28.638Z,99195.52
2023-04-02T03:54:59.978Z,99204.23
2023-04-02T03:57:48.307Z,99215.81
2023-04-02T04:00:24.949Z,99231.48
2023-04-02T04:02:57.565Z,99239.92
2023-04-02T04:05:31.977Z,99245.42
2023-04-02T04:08:02.813Z,99250.08
2023-04-02T04:10:31.208Z,99256.72
2023-04-02T04:13:05.882Z,99262.76
2023-04-02T04:15:33.882Z,99268.59
2023-04-02T04:18:06.005Z,99277.06
2023-04-02T04:20:41.079Z,99280.62
2023-04-02T04:23:10.933Z,99283.63
2023-04-02T04:25:40.107Z,99286.73
2023-04-02T04:28:24.530Z,99289.52
2023-04-02T04:30:53.028Z,99291.93
2023-04-02T04:33:50.579Z,99298.60
2023-04-02T04:36:30.053Z,99301.80
2023-04-02T04:39:14.604Z,99311.30
2023-04-02T04:41:46.802Z,99314.52
2023-04-02T04:44:15.826Z,99316.21
2023-04-02T04:46:50.538Z,99318.75
2023-04-02T04:49:32.942Z,99325.14
2023-04-02T04:52:08.240Z,99329.61
2023-04-02T04:54:37.823Z,99332.77
2023-04-02T04:57:18.028Z,99330.68
2023-04-02T04:59:51.486Z,99329.72
2023-04-02T05:02:32.528Z,99330.02
2023-04-02T05:05:02.745Z,99323.48
2023-04-02T05:07:35.325Z,99318.52
2023-04-02T05:10:24.676Z,99317.70
2023-04-02T05:12:59.298Z,99316.05
2023-04-02T05:15:27.120Z,99317.52
2023-04-02T05:18:08.310Z,99322.52
2023-04-02T05:20:41.381Z,99329.02
2023-04-02T05:23:24.444Z,99330.83
2023-04-02T05:26:11.359Z,99329.41
2023-04-02T05:29:02.217Z,99334.98
2023-04-02T05:31:42.486Z,99337.60
2023-04-02T05:34:12.813Z,99340.78
2023-04-02T05:36:46.613Z,99342.43
2023-04-02T05:39:18.868Z,99345.80
2023-04-02T05:42:03.465Z,99346.26
2023-04-02T05:44:56.523Z,99346.73
2023-04-02T05:47:27.804Z,99350.65
2023-04-02T05:50:10.435Z,99349.11
2023-04-02T05:52:51.836Z,99350.19
2023-04-02T05:55:34.286Z,99349.59
2023-04-02T05:58:29.655Z,99351.77
2023-04-02T06:01:02.293Z,99353.19
2023-04-02T06:03:39.482Z,99353.73
2023-04-02T06:06:21.280Z,99353.65
2023-04-02T06:08:57.764Z,99358.11
2023-04-02T06:11:37.544Z,99361.79
2023-04-02T06:14:06.819Z,99366.41
2023-04-02T06:16:36.872Z,99368.48
2023-04-02T06:19:08.071Z,99367.83
2023-04-02T06:21:43.047Z,99373.64
2023-04-02T06:24:12.471Z,99378.06
2023-04-02T06:26:44.048Z,99378.26
2023-04-02T06:29:20.066Z,99386.07
2023-04-02T06:31:52.457Z,99384.04
2023-04-02T06:34:23.626Z,99385.91
2023-04-02T06:37:12.698Z,99390.24
2023-04-02T06:39:40.686Z,99395.64
2023-04-02T06:42:16.102Z,99399.55
2023-04-02T06:45:31.057Z,99399.50
2023-04-02T06:48:23.148Z,99397.86
2023-04-02T06:51:16.855Z,99402.90
2023-04-02T06:53:49.429Z,99405.89
2023-04-02T06:56:20.129Z,99406.65
2023-04-02T06:58:48.219Z,99405.02
2023-04-02T07:01:25.145Z,99401.87
2023-04-02T07:03:53.247Z,99404.42
2023-04-02T07:06:27.311Z,99407.14
2023-04-02T07:08:59.101Z,99405.55
2023-04-02T07:11:28.490Z,99405.61
2023-04-02T07:13:59.661Z,99404.77
2023-04-02T07:16:29.629Z,99402.31
2023-04-02T07:18:59.253Z,99404.84
2023-04-02T07:21:28.998Z,99403.86
2023-04-02T07:23:57.457Z,99405.45
2023-04-02T07:26:27.721Z,99401.59
2023-04-02T07:28:56.286Z,99398.36
2023-04-02T07:31:25.975Z,99401.48
2023-04-02T07:33:55.878Z,99406.30
2023-04-02T07:36:24.629Z,99413.65
2023-04-02T07:38:52.939Z,99420.21
2023-04-02T07:41:21.472Z,99428.02
2023-04-02T07:43:49.478Z,99432.88
2023-04-02T07:46:19.319Z,99439.30
2023-04-02T07:48:48.042Z,99442.20
2023-04-02T07:51:20.176Z,99448.73
2023-04-02T07:53:56.267Z,99453.87
2023-04-02T07:56:25.193Z,99458.45
2023-04-02T07:58:53.106Z,99462.39
2023-04-02T08:01:27.750Z,99465.31
2023-04-02T08:03:57.153Z,99467.56
2023-04-02T08:06:25.488Z,99470.61
2023-04-02T08:08:53.593Z,99474.44
2023-04-02T08:11:21.566Z,99469.90
2023-04-02T08:13:49.541Z,99469.41
2023-04-02T08:16:17.765Z,99467.44
2023-04-02T08:18:47.577Z,99471.27
2023-04-02T08:21:16.753Z,99472.95
2023-04-02T08:23:45.003Z,99475.19
2023-04-02T08:26:17.148Z,99479.11
2023-04-02T08:28:45.756Z,99479.28
2023-04-02T08:31:13.663Z,99479.97
2023-04-02T08:33:41.594Z,99479.05
2023-04-02T08:36:15.190Z,99479.45
2023-04-02T08:38:43.085Z,99481.92
2023-04-02T08:41:19.902Z,99483.13
2023-04-02T08:44:01.206Z,99487.24
2023-04-02T08:46:50.878Z,99488.66
2023-04-02T08:49:25.045Z,99488.90
2023-04-02T08:51:53.578Z,99489.12
2023-04-02T08:54:27.813Z,99489.70
2023-04-02T08:56:56.149Z,99491.52
2023-04-02T08:59:30.853Z,99491.38
2023-04-02T09:01:58.748Z,99494.31
2023-04-02T09:04:27.710Z,99498.63
2023-04-02T09:06:57.346Z,99496.84
2023-04-02T09:09:25.610Z,99498.28
2023-04-02T09:12:04.528Z,99502.65
2023-04-02T09:14:32.365Z,99502.01
2023-04-02T09:17:02.133Z,99502.52
2023-04-02T09:19:36.372Z,99498.80
2023-04-02T09:22:09.644Z,99500.73
2023-04-02T09:24:37.968Z,99503.94
2023-04-02T09:27:17.100Z,99507.81
2023-04-02T09:29:46.496Z,99508.88
2023-04-02T09:32:23.690Z,99509.11
2023-04-02T09:35:15.027Z,99510.33
2023-04-02T09:37:47.713Z,99514.02
2023-04-02T09:40:15.933Z,99512.23
2023-04-02T09:42:43.631Z,99511.19
2023-04-02T09:45:13.531Z,99514.02
2023-04-02T09:47:42.488Z,99515.35
2023-04-02T09:50:15.440Z,99516.14
2023-04-02T09:52:43.973Z,99514.03
2023-04-02T09:55:15.425Z,99513.73
2023-04-02T09:57:43.366Z,99517.28
2023-04-02T10:00:29.792Z,99522.41
2023-04-02T10:03:05.090Z,99523.67
2023-04-02T10:08:07.593Z,99526.38
2023-04-02T10:10:35.560Z,99529.55
2023-04-02T10:13:06.883Z,99528.75
2023-04-02T10:15:53.115Z,99529.23
2023-04-02T10:18:40.144Z,99534.11
2023-04-02T10:21:10.119Z,99534.74
2023-04-02T10:23:38.854Z,99532.38
2023-04-02T10:26:10.264Z,99532.52
2023-04-02T10:28:38.757Z,99532.61
2023-04-02T10:31:13.208Z,99533.77
2023-04-02T10:33:43.620Z,99535.64
2023-04-02T10:36:11.560Z,99535.61
2023-04-02T10:38:51.187Z,99538.41
2023-04-02T10:41:32.632Z,99540.02
2023-04-02T10:44:32.662Z,99541.98
2023-04-02T10:47:00.974Z,99545.91
2023-04-02T10:49:29.078Z,99547.41
2023-04-02T10:52:13.559Z,99547.96
2023-04-02T10:54:46.965Z,99550.52
2023-04-02T10:57:17.724Z,99550.62
2023-04-02T10:59:49.625Z,99551.76
2023-04-02T11:02:26.012Z,99552.98
2023-04-02T11:04:57.533Z,99552.58
2023-04-02T11:07:29.174Z,99556.08
2023-04-02T11:09:57.992Z,99557.73
2023-04-02T11:12:32.427Z,99559.95
2023-04-02T11:15:00.886Z,99559.48
2023-04-02T11:17:28.853Z,99559.31
2023-04-02T11:20:16.901Z,99561.16
2023-04-02T11:22:44.862Z,99560.48
2023-04-02T11:25:21.462Z,99559.54
2023-04-02T11:27:49.927Z,99561.52
2023-04-02T11:30:18.887Z,99561.23
2023-04-02T11:32:49.748Z,99563.13
2023-04-02T11:35:26.669Z,99561.51
2023-04-02T11:37:56.236Z,99564.02
2023-04-02T11:40:44.571Z,99565.79
2023-04-02T11:43:30.896Z,99567.06
2023-04-02T11:45:59.734Z,99563.77
2023-04-02T11:48:29.850Z,99557.92
2023-04-02T11:50:58.303Z,99559.48
2023-04-02T11:53:32.868Z,99558.48
2023-04-02T11:56:30.660Z,99552.63
2023-04-02T11:59:07.367Z,99552.59
2023-04-02T12:01:35.372Z,99544.82
2023-04-02T12:04:21.536Z,99544.33
2023-04-02T12:06:52.393Z,99544.64
2023-04-02T12:09:27.911Z,99540.69
2023-04-02T12:11:57.477Z,99534.83
2023-04-02T12:14:43.969Z,99533.23
2023-04-02T12:17:30.939Z,99530.89
2023-04-02T12:20:01.900Z,99529.67
2023-04-02T12:22:32.031Z,99526.70
2023-04-02T12:25:02.435Z,99523.64
2023-04-02T12:27:30.668Z,99520.65
2023-04-02T12:30:14.712Z,99515.16
2023-04-02T12:32:42.739Z,99508.26
2023-04-02T12:35:32.700Z,99501.08
2023-04-02T12:38:01.126Z,99499.33
2023-04-02T12:40:29.466Z,99494.41
2023-04-02T12:42:57.576Z,99489.59
2023-04-02T12:45:31.208Z,99491.38
2023-04-02T12:48:01.998Z,99490.66
2023-04-02T12:50:30.734Z,99490.35
2023-04-02T12:53:01.142Z,99491.56
2023-04-02T12:55:29.421Z,99489.58
2023-04-02T12:57:58.512Z,99488.77
2023-04-02T13:00:26.299Z,99490.88
2023-04-02T13:02:57.444Z,99491.64
2023-04-02T13:05:37.284Z,99492.36
2023-04-02T13:08:05.845Z,99489.81
2023-04-02T13:10:33.764Z,99492.39
2023-04-02T13:13:03.218Z,99494.07
2023-04-02T13:15:32.438Z,99494.61
2023-04-02T13:18:18.106Z,99494.70
2023-04-02T13:20:56.713Z,99497.73
2023-04-02T13:23:24.583Z,99498.03
2023-04-02T13:25:52.412Z,99499.08
2023-04-02T13:28:21.081Z,99501.86
2023-04-02T13:30:49.039Z,99504.77
2023-04-02T13:33:17.375Z,99506.61
2023-04-02T13:35:45.454Z,99508.88
2023-04-02T13:38:13.376Z,99509.26
2023-04-02T13:40:41.391Z,99509.16
2023-04-02T13:43:15.901Z,99510.85
2023-04-02T13:45:44.220Z,99515.23
2023-04-02T13:48:14.012Z,99514.95
2023-04-02T13:50:42.446Z,99513.81
2023-04-02T13:53:14.197Z,99515.89
2023-04-02T13:55:43.013Z,99515.11
2023-04-02T13:58:11.507Z,99513.88
2023-04-02T14:00:39.508Z,99513.05
2023-04-02T14:03:13.202Z,99515.64
2023-04-02T14:05:47.227Z,99513.58
2023-04-02T14:08:17.976Z,99515.41
2023-04-02T14:10:45.844Z,99514.32
2023-04-02T14:13:28.643Z,99508.02
2023-04-02T14:16:15.482Z,99504.88
2023-04-02T14:18:46.428Z,99501.96
2023-04-02T14:21:29.229Z,99503.11
2023-04-02T14:23:57.204Z,99501.05
2023-04-02T14:26:28.161Z,99500.45
2023-04-02T14:28:58.979Z,99494.34
2023-04-02T14:31:39.264Z,99489.17
2023-04-02T14:34:14.959Z,99485.96
2023-04-02T14:36:43.053Z,99485.94
2023-04-02T14:39:10.993Z,99488.38
2023-04-02T14:41:58.122Z,99488.96
2023-04-02T14:44:28.713Z,99484.83
2023-04-02T14:47:00.695Z,99481.20
2023-04-02T14:49:28.412Z,99479.84
2023-04-02T14:51:56.626Z,99480.92
2023-04-02T14:54:40.100Z,99479.62
2023-04-02T14:57:08.230Z,99477.61
2023-04-02T14:59:54.803Z,99479.98
2023-04-02T15:02:30.553Z,99477.44
2023-04-02T15:05:01.541Z,99473.28
2023-04-02T15:07:36.651Z,99475.45
2023-04-02T15:10:14.337Z,99475.73
2023-04-02T15:12:42.974Z,99477.00
2023-04-02T15:15:26.960Z,99475.48
2023-04-02T15:18:01.760Z,99476.94
2023-04-02T15:20:34.471Z,99478.05
2023-04-02T15:23:09.699Z,99478.58
2023-04-02T15:25:42.623Z,99477.39
2023-04-02T15:28:20.899Z,99476.63
2023-04-02T15:30:52.442Z,99477.05
2023-04-02T15:33:30.319Z,99478.95
2023-04-02T15:36:26.228Z,99481.26
2023-04-02T15:38:57.286Z,99483.50
2023-04-02T15:41:26.873Z,99486.73
2023-04-02T15:44:00.939Z,99487.17
2023-04-02T15:46:46.365Z,99490.91
2023-04-02T15:49:20.412Z,99493.95
2023-04-02T15:51:59.641Z,99503.02
2023-04-02T15:54:36.524Z,99503.02
2023-04-02T15:57:26.766Z,99508.12
2023-04-02T16:00:04.284Z,99511.21
2023-04-02T16:02:58.811Z,99515.14
2023-04-02T16:05:36.045Z,99520.34
2023-04-02T16:08:22.810Z,99524.52
2023-04-02T16:10:50.969Z,99529.60
2023-04-02T16:13:26.124Z,99531.73
2023-04-02T16:16:12.941Z,99532.81
2023-04-02T16:18:59.376Z,99538.71
2023-04-02T16:21:29.459Z,99540.74
2023-04-02T16:23:57.380Z,99544.98
2023-04-02T16:26:43.904Z,99547.96
2023-04-02T16:29:11.918Z,99552.09
2023-04-02T16:31:39.905Z,99555.27
2023-04-02T16:34:25.505Z,99557.94
2023-04-02T16:37:12.448Z,99557.77
2023-04-02T16:39:58.942Z,99560.18
2023-04-02T16:42:27.208Z,99563.58
2023-04-02T16:44:55.469Z,99565.24
2023-04-02T16:47:23.374Z,99567.17
2023-04-02T16:50:00.541Z,99575.28
2023-04-02T16:52:47.353Z,99578.02
2023-04-02T16:55:33.713Z,99576.86
2023-04-02T16:58:01.821Z,99579.45
2023-04-02T17:00:39.112Z,99582.35
2023-04-02T17:03:22.529Z,99580.75
2023-04-02T17:05:59.595Z,99579.52
2023-04-02T17:08:31.754Z,99581.68
2023-04-02T17:11:06.490Z,99583.69
2023-04-02T17:13:39.342Z,99588.90
2023-04-02T17:16:07.313Z,99589.76
2023-04-02T17:18:35.770Z,99588.90
2023-04-02T17:21:09.009Z,99592.84
2023-04-02T17:26:24.447Z,99601.95
2023-04-02T17:28:53.168Z,99606.33
2023-04-02T17:31:25.531Z,99610.77
2023-04-02T17:33:53.422Z,99610.17
2023-04-02T17:36:22.440Z,99611.64
2023-04-02T17:38:50.952Z,99612.50
2023-04-02T17:41:28.470Z,99617.67
2023-04-02T17:43:56.693Z,99619.55
2023-04-02T17:46:44.209Z,99621.02
2023-04-02T17:49:20.444Z,99624.45
2023-04-02T17:51:52.025Z,99628.94
2023-04-02T17:54:31.070Z,99626.70
2023-04-02T17:56:59.019Z,99629.31
2023-04-02T17:59:45.748Z,99636.88
2023-04-02T18:02:19.626Z,99639.60
2023-04-02T18:04:47.791Z,99644.55
2023-04-02T18:07:31.670Z,99648.13
2023-04-02T18:09:59.661Z,99651.20
2023-04-02T18:12:27.497Z,99653.04
2023-04-02T18:14:56.187Z,99655.42
2023-04-02T18:17:26.901Z,99657.33
2023-04-02T18:19:54.846Z,99659.44
2023-04-02T18:22:25.746Z,99663.49
2023-04-02T18:25:14.835Z,99666.09
2023-04-02T18:27:49.405Z,99667.39
2023-04-02T18:30:21.629Z,99674.39
2023-04-02T18:33:00.309Z,99683.91
2023-04-02T18:35:28.326Z,99691.13
2023-04-02T18:38:17.454Z,99689.27
2023-04-02T18:41:00.436Z,99694.35
2023-04-02T18:43:28.595Z,99692.04
2023-04-02T18:46:05.271Z,99690.77
2023-04-02T18:48:36.624Z,99696.58
2023-04-02T18:51:06.913Z,99701.61
2023-04-02T18:53:35.921Z,99698.75
2023-04-02T18:56:06.299Z,99697.89
2023-04-02T18:58:39.823Z,99703.50
2023-04-02T19:01:09.920Z,99703.78
2023-04-02T19:03:55.232Z,99705.16
2023-04-02T19:06:28.852Z,99710.18
2023-04-02T19:09:08.046Z,99710.24
2023-04-02T19:11:36.528Z,99711.13
2023-04-02T19:14:12.286Z,99709.23
2023-04-02T19:16:40.036Z,99714.36
2023-04-02T19:19:11.130Z,99716.46
2023-04-02T19:21:46.631Z,99721.98
2023-04-02T19:24:27.226Z,99726.65
2023-04-02T19:27:12.583Z,99732.72
2023-04-02T19:29:57.537Z,99738.80
2023-04-02T19:32:44.219Z,99743.89
2023-04-02T19:35:27.259Z,99749.23
2023-04-02T19:38:05.691Z,99753.03
2023-04-02T19:40:39.579Z,99753.79
2023-04-02T19:43:09.616Z,99755.73
2023-04-02T19:45:39.694Z,99761.10
2023-04-02T19:48:26.222Z,99763.80
2023-04-02T19:50:54.285Z,99767.13
2023-04-02T19:53:22.290Z,99764.11
2023-04-02T19:55:51.030Z,99766.58
2023-04-02T19:58:26.079Z,99770.63
2023-04-02T20:00:54.523Z,99769.12
2023-04-02T20:03:22.541Z,99767.84
2023-04-02T20:05:50.520Z,99769.14
2023-04-02T20:08:18.664Z,99772.91
2023-04-02T20:10:46.643Z,99773.15
2023-04-02T20:13:14.718Z,99774.80
2023-04-02T20:15:42.880Z,99781.71
2023-04-02T20:18:11.074Z,99784.36
2023-04-02T20:20:39.923Z,99786.41
2023-04-02T20:23:07.704Z,99787.67
2023-04-02T20:25:35.613Z,99793.33
2023-04-02T20:28:04.056Z,99790.98
2023-04-02T20:30:32.567Z,99790.48
2023-04-02T20:33:01.115Z,99794.45
2023-04-02T20:35:29.811Z,99793.53
2023-04-02T20:37:58.734Z,99794.65
2023-04-02T20:40:26.726Z,99794.80
2023-04-02T20:42:54.640Z,99795.99
2023-04-02T20:45:22.895Z,99796.46
2023-04-02T20:47:50.912Z,99798.02
2023-04-02T20:50:19.292Z,99798.14
2023-04-02T20:52:47.126Z,99804.00
2023-04-02T20:55:14.922Z,99805.32
2023-04-02T20:57:43.157Z,99808.48
2023-04-02T21:00:12.187Z,99808.30
2023-04-02T21:02:40.073Z,99811.77
2023-04-02T21:05:08.452Z,99814.27
2023-04-02T21:07:36.448Z,99820.96
2023-04-02T21:10:04.763Z,99822.64
2023-04-02T21:12:33.298Z,99826.06
2023-04-02T21:15:02.785Z,99830.02
2023-04-02T21:17:31.249Z,99836.96
2023-04-02T21:19:59.095Z,99839.24
2023-04-02T21:22:27.138Z,99836.55
2023-04-02T21:24:54.929Z,99838.05
2023-04-02T21:27:25.939Z,99840.41
2023-04-02T21:29:54.390Z,99837.38
2023-04-02T21:32:22.539Z,99841.17
2023-04-02T21:34:50.598Z,99840.79
2023-04-02T21:37:18.735Z,99842.74
2023-04-02T21:39:47.162Z,99843.41
2023-04-02T21:42:15.298Z,99843.61
2023-04-02T21:44:43.048Z,99843.16
2023-04-02T21:47:11.102Z,99846.14
2023-04-02T21:49:39.379Z,99852.25
2023-04-02T21:52:07.311Z,99857.88
2023-04-02T21:54:35.270Z,99860.16
2023-04-02T21:57:03.290Z,99867.37
2023-04-02T21:59:31.365Z,99868.14
2023-04-02T22:01:59.237Z,99869.89
2023-04-02T22:04:28.742Z,99870.08
2023-04-02T22:06:56.945Z,99870.81
2023-04-02T22:09:26.187Z,99871.52
2023-04-02T22:11:59.383Z,99874.61
2023-04-02T22:14:27.962Z,99875.91
2023-04-02T22:16:56.138Z,99874.45
2023-04-02T22:19:24.074Z,99878.58
2023-04-02T22:21:53.164Z,99880.59
2023-04-02T22:24:24.996Z,99879.02
2023-04-02T22:26:52.845Z,99879.59
2023-04-02T22:29:21.317Z,99880.08
2023-04-02T22:31:49.128Z,99882.27
2023-04-02T22:34:17.016Z,99883.48
2023-04-02T22:36:44.711Z,99885.92
2023-04-02T22:39:12.665Z,99887.45
2023-04-02T22:41:41.336Z,99889.21
2023-04-02T22:44:12.703Z,99891.88
2023-04-02T22:46:40.624Z,99891.50
2023-04-02T22:49:09.383Z,99897.30
2023-04-02T22:51:37.252Z,99895.02
2023-04-02T22:54:05.803Z,99894.58
2023-04-02T22:56:35.382Z,99894.64
2023-04-02T22:59:03.286Z,99896.79
2023-04-02T23:01:33.267Z,99895.90
2023-04-02T23:04:01.474Z,99897.07
2023-04-02T23:06:29.593Z,99898.58
2023-04-02T23:08:57.556Z,99898.52
2023-04-02T23:11:27.546Z,99898.03
2023-04-02T23:13:57.042Z,99904.19
2023-04-02T23:16:27.204Z,99903.93
2023-04-02T23:18:56.142Z,99904.65
2023-04-02T23:21:24.472Z,99901.04
2023-04-02T23:23:52.372Z,99901.58
2023-04-02T23:26:22.622Z,99903.80
2023-04-02T23:28:50.862Z,99903.23
2023-04-02T23:31:20.461Z,99903.36
2023-04-02T23:33:49.059Z,99903.71
2023-04-02T23:36:20.857Z,99905.46
2023-04-02T23:38:49.084Z,99908.59
2023-04-02T23:41:17.372Z,99909.80
2023-04-02T23:43:45.344Z,99911.48
2023-04-02T23:46:13.685Z,99913.17
2023-04-02T23:48:42.005Z,99912.95
2023-04-02T23:51:09.906Z,99909.65
2023-04-02T23:53:37.912Z,99910.00
2023-04-02T23:56:06.086Z,99911.63
2023-04-02T23:58:34.240Z,99915.00
